Aviation Digital Data Service (ADDS)

Output produced by METARs form (1852 UTC 18 June 2019)
found at http://www.aviationweather.gov/metar/data/
 
LSMA 181820Z AUTO VRB02KT 9999NDV FEW110 20/18 Q1016 RMK
LSZB 181850Z 12008KT CAVOK 22/16 Q1014 NOSIG
TAF LSZB 181425Z 1815/1824 17007KT 9999 FEW030 SCT060 
     TEMPO 1815/1817 SHRA SCT060TCU 
     PROB40 
     TEMPO 1815/1817 TSRA SCT060CB 
     BECMG 1819/1821 VRB03KT CAVOK
       
LSMD 181820Z AUTO 14008KT 110V170 9999NDV SCT100 23/13 Q1015 RMK
LSME 181820Z AUTO 16009KT 140V210 9999NDV FEW190 22/14 Q1015 RMK
LSGG 181850Z 21010KT CAVOK 26/15 Q1014 NOSIG
TAF LSGG 181725Z 1818/1924 22005KT CAVOK TX29/1915Z TN15/1904Z 
     BECMG 1909/1911 9999 FEW040 
     BECMG 1912/1914 22010KT
       
LSGC 181850Z AUTO VRB02KT CAVOK 19/14 Q1017
TAF LSGC 181425Z 1815/1824 25005KT 9999 FEW040 SCT090 
     BECMG 1819/1821 CAVOK
       
LSZA 181850Z 18004KT 9999 FEW055 25/19 Q1014 NOSIG
TAF LSZA 181425Z 1815/1824 20005KT 9999 FEW060 
     PROB40 
     TEMPO 1817/1821 TSRA SCT050CB
       
LSMM 181820Z AUTO 08004KT 060V130 9999NDV FEW100 SCT140 BKN170 18/17 Q1016 RMK
LSMP 181820Z 00000KT CAVOK 26/15 Q1014 RMK BLU
LSZS 181850Z AUTO 22009KT 180V260 9999 //////TCU 15/11 Q1021
TAF LSZS 181425Z 1815/1824 20010KT 9999 SCT045 TX22/1815Z 
     PROB30 
     TEMPO 1815/1818 SHRA SCT035TCU 
     TEMPO 1818/1824 SHRA FEW035TCU 
     PROB30 
     TEMPO 1818/1824 22015G25KT 4500 TSRA FEW030CB
       
LSGS 181850Z AUTO VRB01KT 9999 FEW150 //////TCU 25/12 Q1014
TAF LSGS 181425Z 1815/1824 25012KT 9999 SCT100 BKN200 
     BECMG 1819/1821 VRB03KT CAVOK
       
LSZR 181850Z 24008KT 200V280 7000 -RA FEW060CB BKN080 21/15 Q1015 NOSIG RMK R
TAF LSZR 181425Z 1815/1824 VRB03KT 9999 FEW050 
     PROB40 1816/1821 18015G35KT -TSRA SCT060CB
       
LSZH 181850Z 14012KT 9999 FEW070 SCT120 BKN200 22/13 Q1015 NOSIG
TAF LSZH 181725Z 1818/1924 VRB03KT 9999 FEW060 SCT120 BKN180 TX30/1915Z
TN13/1904Z 
     TEMPO 1818/1820 SCT050TCU 
     PROB30 
     TEMPO 1818/1821 15012G25KT 
     BECMG 1819/1822 CAVOK 
     BECMG 1910/1913 9999 FEW050 
     PROB40 
     TEMPO 1914/1922 SCT050TCU 
     PROB30 
     TEMPO 1917/1922 23012G25KT 4500 TSRA SCT030CB